Time;durP1;ratioP1;P1;durP2;ratioP2;P2;SDS_P1;SDS_P2;PMS_P1;PMS_P2;Temp;Humidity;BMP_temperature;BMP_pressure;BME280_temperature;BME280_humidity;BME280_pressure;Samples;Min_cycle;Max_cycle;Signal;HPM_P1;HPM_P2
2023/08/17 00:00:20;;;;;;;10.15;6.05;;;;;;;21.90;100.00;65292.88;5052196;28;20198;-54
2023/08/17 00:02:45;;;;;;;9.35;6.13;;;;;;;21.77;100.00;65277.91;5027190;23;20271;-51
2023/08/17 00:05:11;;;;;;;8.40;5.50;;;;;;;21.75;100.00;65276.78;5033120;28;20198;-51
2023/08/17 00:07:37;;;;;;;10.38;6.32;;;;;;;21.74;100.00;65272.56;5033148;28;20232;-51
2023/08/17 00:10:03;;;;;;;9.45;5.68;;;;;;;21.68;100.00;65271.63;5033536;28;20186;-51
2023/08/17 00:12:29;;;;;;;9.38;5.70;;;;;;;21.71;100.00;65269.25;5033034;28;20299;-52
2023/08/17 00:14:54;;;;;;;8.35;6.55;;;;;;;21.73;100.00;65274.59;5032937;28;20501;-51
2023/08/17 00:17:22;;;;;;;8.20;6.18;;;;;;;21.65;100.00;65268.28;5032464;28;20686;-51
2023/08/17 00:19:47;;;;;;;10.20;5.70;;;;;;;21.69;100.00;65267.59;5032881;28;20208;-51
2023/08/17 00:22:13;;;;;;;9.52;6.10;;;;;;;21.61;100.00;65258.19;5032429;28;20304;-52
2023/08/17 00:24:40;;;;;;;12.80;5.85;;;;;;;21.59;100.00;65258.56;5032484;28;20202;-52
2023/08/17 00:27:06;;;;;;;6.63;5.40;;;;;;;21.51;100.00;65247.69;5032427;28;20224;-52
2023/08/17 00:29:32;;;;;;;7.10;5.28;;;;;;;21.54;100.00;65250.44;5015124;28;20197;-52
2023/08/17 00:31:58;;;;;;;9.15;5.85;;;;;;;21.59;100.00;65259.09;5014898;28;20628;-53
2023/08/17 00:34:23;;;;;;;9.77;4.90;;;;;;;21.52;100.00;65248.25;5032582;28;20263;-51
2023/08/17 00:36:48;;;;;;;5.85;5.00;;;;;;;21.43;100.00;65241.41;5032499;28;20230;-50
2023/08/17 00:39:14;;;;;;;10.82;5.40;;;;;;;21.42;100.00;65240.31;5032960;28;20640;-51
2023/08/17 00:41:40;;;;;;;9.20;4.70;;;;;;;21.47;98.67;65245.28;5032594;28;20234;-51
2023/08/17 00:44:06;;;;;;;5.97;4.57;;;;;;;21.48;96.90;65243.81;5032264;28;20711;-51
2023/08/17 00:46:32;;;;;;;7.93;4.25;;;;;;;21.36;96.06;65233.09;5032530;28;20210;-51
2023/08/17 00:48:58;;;;;;;8.55;4.65;;;;;;;21.15;96.82;65207.34;5032362;28;20360;-51
2023/08/17 00:51:26;;;;;;;9.48;4.38;;;;;;;21.05;96.40;65198.84;5014089;28;20217;-50
2023/08/17 00:53:54;;;;;;;5.97;4.15;;;;;;;21.03;96.18;65196.63;5032147;28;20198;-51
2023/08/17 00:56:21;;;;;;;5.95;3.95;;;;;;;20.92;96.35;65182.44;5014110;28;20692;-50
2023/08/17 00:58:46;;;;;;;7.13;4.28;;;;;;;20.87;96.42;65182.00;5032386;28;20234;-51
2023/08/17 01:01:13;;;;;;;6.55;4.13;;;;;;;20.86;95.23;65178.91;5032265;28;20697;-53
2023/08/17 01:03:43;;;;;;;4.35;3.95;;;;;;;20.80;96.36;65172.28;5032031;28;20194;-50
2023/08/17 01:06:09;;;;;;;6.47;3.72;;;;;;;20.93;94.51;65184.09;5032004;28;20707;-51
2023/08/17 01:08:37;;;;;;;4.30;3.60;;;;;;;20.89;94.13;65181.66;5032522;28;20206;-51
2023/08/17 01:11:42;;;;;;;6.63;3.28;;;;;;;20.85;92.12;65177.81;5030963;28;20233;-51
2023/08/17 01:14:21;;;;;;;5.85;3.25;;;;;;;20.96;88.63;65189.41;4961244;28;20220;-51
2023/08/17 01:16:59;;;;;;;4.32;3.20;;;;;;;21.06;86.74;65202.50;5031847;28;20312;-54
2023/08/17 01:19:27;;;;;;;6.95;3.10;;;;;;;21.07;86.05;65201.59;5014176;28;20198;-50
2023/08/17 01:22:00;;;;;;;4.40;3.03;;;;;;;21.13;87.03;65208.22;5031996;28;20305;-51
2023/08/17 01:24:26;;;;;;;6.47;3.03;;;;;;;21.03;86.21;65197.16;5031858;28;20198;-51
2023/08/17 01:26:54;;;;;;;8.27;3.58;;;;;;;20.98;85.75;65194.19;5031613;28;20309;-52
2023/08/17 01:29:21;;;;;;;5.47;3.10;;;;;;;20.97;84.59;65187.94;5013887;28;20716;-51
2023/08/17 01:32:24;;;;;;;5.05;3.17;;;;;;;20.86;86.17;65176.34;5031666;28;20218;-50
2023/08/17 01:35:16;;;;;;;4.93;2.92;;;;;;;20.92;83.41;65185.56;5031733;28;20204;-51
2023/08/17 01:37:43;;;;;;;4.68;3.17;;;;;;;20.88;83.59;65181.13;5031145;28;20230;-51
2023/08/17 01:40:09;;;;;;;7.35;3.03;;;;;;;20.73;84.25;65161.97;5032094;28;20297;-51
2023/08/17 01:42:37;;;;;;;6.15;3.30;;;;;;;20.75;84.03;65163.63;5031193;28;20305;-51
2023/08/17 01:45:03;;;;;;;4.93;2.92;;;;;;;20.73;84.58;65166.53;5031423;28;20175;-51
2023/08/17 01:47:30;;;;;;;5.93;2.92;;;;;;;20.67;85.05;65154.78;5031739;28;20657;-52
2023/08/17 01:49:59;;;;;;;4.43;3.05;;;;;;;20.70;84.10;65158.09;5031118;28;20202;-50
2023/08/17 01:52:28;;;;;;;3.88;3.05;;;;;;;20.72;83.86;65162.88;5031284;28;20214;-50
2023/08/17 01:54:53;;;;;;;5.90;3.00;;;;;;;20.77;83.58;65170.97;5031314;28;20707;-53
2023/08/17 01:57:19;;;;;;;3.55;3.03;;;;;;;20.76;84.92;65167.31;5031052;28;20218;-51
2023/08/17 01:59:44;;;;;;;5.53;2.80;;;;;;;20.62;84.84;65151.84;5031173;28;20765;-51
2023/08/17 02:02:11;;;;;;;6.88;3.22;;;;;;;20.73;84.42;65161.97;5031350;28;20752;-51
2023/08/17 02:04:37;;;;;;;6.18;3.30;;;;;;;20.66;84.92;65153.69;5031035;28;20206;-51
2023/08/17 02:07:03;;;;;;;3.00;2.72;;;;;;;20.66;84.94;65154.25;5013489;28;20229;-51
2023/08/17 02:09:28;;;;;;;5.80;3.05;;;;;;;20.55;85.43;65139.53;5031571;28;20573;-52
2023/08/17 02:11:53;;;;;;;6.18;2.97;;;;;;;20.54;85.44;65146.09;5031054;28;20201;-51
2023/08/17 02:14:19;;;;;;;4.28;3.10;;;;;;;20.53;85.41;65142.44;5030988;28;20293;-51
2023/08/17 02:16:45;;;;;;;6.95;2.90;;;;;;;20.56;87.11;65145.75;5030855;28;20221;-51
2023/08/17 02:19:10;;;;;;;3.65;2.97;;;;;;;20.66;84.00;65156.81;5031047;28;20205;-51
2023/08/17 02:21:36;;;;;;;9.15;3.20;;;;;;;20.61;84.43;65151.28;5030399;28;20575;-50
2023/08/17 02:24:02;;;;;;;4.22;3.08;;;;;;;20.55;85.57;65141.53;5030757;28;20206;-54
2023/08/17 02:26:30;;;;;;;4.35;3.10;;;;;;;20.54;85.74;65145.56;5030915;28;20276;-51
2023/08/17 02:28:55;;;;;;;4.03;2.92;;;;;;;20.47;85.85;65135.81;5031156;28;20198;-51
2023/08/17 02:31:21;;;;;;;5.28;2.97;;;;;;;20.45;87.27;65135.59;5030745;28;20562;-50
2023/08/17 02:33:46;;;;;;;4.30;3.13;;;;;;;20.49;88.78;65135.44;5030902;28;20296;-52
2023/08/17 02:36:12;;;;;;;4.18;3.05;;;;;;;20.59;87.42;65148.50;5012612;28;20222;-51
2023/08/17 02:38:37;;;;;;;6.80;3.13;;;;;;;20.53;85.10;65139.88;5031200;28;20198;-51
2023/08/17 02:41:02;;;;;;;5.68;3.22;;;;;;;20.48;85.33;65139.47;5030557;28;20615;-51
2023/08/17 02:43:28;;;;;;;3.08;2.78;;;;;;;20.42;86.72;65129.72;5030729;28;20588;-51
2023/08/17 02:45:54;;;;;;;5.20;2.92;;;;;;;20.40;86.64;65128.06;5030354;28;20739;-51
2023/08/17 02:48:19;;;;;;;6.55;3.63;;;;;;;20.37;86.76;65121.63;5030887;28;20190;-50
2023/08/17 02:50:45;;;;;;;5.32;3.20;;;;;;;20.33;87.31;65122.34;5030338;28;20574;-52
2023/08/17 02:53:10;;;;;;;4.60;2.92;;;;;;;20.26;87.00;65109.50;5012497;28;20672;-51
2023/08/17 02:55:36;;;;;;;4.18;3.22;;;;;;;20.23;87.31;65108.72;5030229;28;20704;-56
2023/08/17 02:58:02;;;;;;;6.47;3.17;;;;;;;20.21;87.46;65109.63;5030735;28;20217;-51
2023/08/17 03:00:28;;;;;;;6.57;2.85;;;;;;;20.03;88.37;65087.16;5030296;28;20198;-51
2023/08/17 03:02:54;;;;;;;6.78;2.80;;;;;;;19.87;88.77;65066.94;5054597;22;20239;-50
2023/08/17 03:05:19;;;;;;;3.38;3.00;;;;;;;20.00;88.51;65081.28;5050199;28;20255;-51
2023/08/17 03:07:45;;;;;;;5.20;2.67;;;;;;;20.01;87.98;65082.97;5050513;28;20590;-51
2023/08/17 03:10:12;;;;;;;4.88;2.88;;;;;;;19.97;87.79;65080.53;5049941;28;20201;-50
2023/08/17 03:12:39;;;;;;;6.30;3.10;;;;;;;19.93;87.35;65073.56;5050535;28;20233;-52
2023/08/17 03:15:06;;;;;;;3.90;2.90;;;;;;;19.86;88.06;65071.50;5032138;28;20266;-51
2023/08/17 03:17:31;;;;;;;3.35;2.60;;;;;;;19.92;86.56;65072.44;5049872;28;20296;-51
2023/08/17 03:19:59;;;;;;;2.83;2.53;;;;;;;19.84;89.39;65064.16;5050116;28;20732;-53
2023/08/17 03:22:24;;;;;;;5.38;2.65;;;;;;;19.91;86.54;65074.47;5032149;28;20275;-52
2023/08/17 03:24:50;;;;;;;7.80;3.20;;;;;;;20.01;85.51;65085.50;5050383;28;20668;-52
2023/08/17 03:27:16;;;;;;;4.43;2.53;;;;;;;19.98;85.16;65079.06;5032149;28;20240;-58
2023/08/17 03:29:41;;;;;;;5.65;2.95;;;;;;;19.99;84.59;65083.31;5050007;28;20252;-55
2023/08/17 03:32:06;;;;;;;4.43;2.88;;;;;;;19.96;84.58;65079.97;5049907;28;20217;-53
2023/08/17 03:34:32;;;;;;;6.75;2.25;;;;;;;19.90;84.83;65073.34;5051577;28;20682;-55
2023/08/17 03:36:58;;;;;;;6.10;2.97;;;;;;;19.87;85.43;65067.50;5035282;28;20218;-54
2023/08/17 03:39:23;;;;;;;4.05;3.17;;;;;;;19.81;86.30;65063.44;5053500;28;20581;-55
2023/08/17 03:41:50;;;;;;;4.10;2.83;;;;;;;19.87;86.75;65070.06;5053337;28;20643;-53
2023/08/17 03:44:16;;;;;;;3.60;2.65;;;;;;;19.91;85.09;65076.47;5053190;28;20174;-55
2023/08/17 03:46:42;;;;;;;5.25;3.38;;;;;;;19.83;85.16;65068.19;5035426;28;20228;-57
2023/08/17 03:49:07;;;;;;;3.38;2.78;;;;;;;19.85;85.38;65070.41;5053236;28;20644;-55
2023/08/17 03:51:32;;;;;;;5.25;3.00;;;;;;;19.83;85.86;65065.63;5053015;28;20228;-55
2023/08/17 03:53:58;;;;;;;4.57;2.75;;;;;;;19.92;85.58;65072.44;5053402;28;20706;-55
2023/08/17 03:56:24;;;;;;;4.57;2.97;;;;;;;19.86;86.03;65071.50;5053002;28;20216;-54
2023/08/17 03:58:53;;;;;;;4.35;3.15;;;;;;;19.84;86.23;65066.72;5053008;28;20291;-54
2023/08/17 04:01:18;;;;;;;4.68;2.88;;;;;;;19.76;87.08;65055.34;5052823;28;20213;-57
2023/08/17 04:03:44;;;;;;;4.28;2.95;;;;;;;19.72;87.27;65052.91;5053298;28;20271;-56
2023/08/17 04:06:12;;;;;;;3.88;2.90;;;;;;;19.75;87.38;65056.81;5052940;28;20714;-53
2023/08/17 04:08:39;;;;;;;5.15;3.22;;;;;;;19.55;87.10;65034.72;5052634;28;20362;-54
2023/08/17 04:11:05;;;;;;;6.90;3.50;;;;;;;19.63;87.80;65040.44;5052378;28;20300;-56
2023/08/17 04:13:31;;;;;;;4.07;2.55;;;;;;;19.68;87.87;65049.06;5052901;28;20177;-54
2023/08/17 04:15:57;;;;;;;4.57;3.00;;;;;;;19.71;87.23;65052.38;5052504;28;20213;-55
2023/08/17 04:18:23;;;;;;;6.13;2.92;;;;;;;19.78;87.10;65060.09;5052550;28;20702;-55
2023/08/17 04:20:48;;;;;;;4.82;2.80;;;;;;;19.79;86.65;65063.78;5052446;28;20201;-54
2023/08/17 04:23:14;;;;;;;2.42;2.13;;;;;;;19.82;85.03;65067.06;5052876;28;20198;-54
2023/08/17 04:25:40;;;;;;;5.55;2.85;;;;;;;19.87;84.41;65070.06;5052439;28;20194;-53
2023/08/17 04:28:05;;;;;;;6.05;3.33;;;;;;;19.83;84.64;65065.63;5052468;28;20220;-55
2023/08/17 04:30:31;;;;;;;3.42;2.75;;;;;;;19.83;84.15;65068.19;5052269;28;20193;-53
2023/08/17 04:32:57;;;;;;;2.88;2.47;;;;;;;19.97;82.22;65081.09;5052413;28;20252;-52
2023/08/17 04:35:22;;;;;;;4.80;2.67;;;;;;;19.97;81.56;65078.53;5052695;28;20201;-55
2023/08/17 04:37:48;;;;;;;4.28;2.40;;;;;;;19.96;80.96;65079.97;5051894;28;20217;-54
2023/08/17 04:40:14;;;;;;;2.45;2.15;;;;;;;20.05;80.66;65086.81;5052105;28;20189;-54
2023/08/17 04:42:42;;;;;;;3.53;2.38;;;;;;;20.04;80.31;65088.81;5052220;28;20205;-55
2023/08/17 04:45:08;;;;;;;5.75;2.75;;;;;;;20.10;80.02;65094.88;5051789;28;20331;-53
2023/08/17 04:47:34;;;;;;;4.57;2.53;;;;;;;20.08;80.08;65090.69;5052257;28;20320;-55
2023/08/17 04:49:59;;;;;;;4.70;2.85;;;;;;;20.16;79.31;65101.53;5051998;28;20299;-54
2023/08/17 04:52:26;;;;;;;6.88;2.47;;;;;;;20.21;80.05;65109.06;5052170;28;20297;-55
2023/08/17 04:54:53;;;;;;;3.72;2.35;;;;;;;20.36;77.68;65123.63;5052428;28;20259;-54
2023/08/17 04:57:19;;;;;;;3.72;2.58;;;;;;;20.37;79.27;65122.19;5033731;28;20225;-55
2023/08/17 04:59:45;;;;;;;3.88;2.60;;;;;;;20.51;76.78;65140.22;5051920;28;20292;-54
2023/08/17 05:02:11;;;;;;;2.70;2.00;;;;;;;20.69;75.81;65159.56;5051746;28;20209;-54
2023/08/17 05:04:36;;;;;;;5.50;2.85;;;;;;;20.73;75.53;65167.09;5033903;28;20200;-55
2023/08/17 05:07:08;;;;;;;2.50;2.28;;;;;;;20.79;75.55;65168.03;5033698;28;20603;-54
2023/08/17 05:09:34;;;;;;;4.90;2.55;;;;;;;20.85;74.92;65174.69;5051627;28;20198;-59
2023/08/17 05:11:59;;;;;;;5.43;2.60;;;;;;;20.92;74.20;65182.44;5051593;28;20289;-54
2023/08/17 05:14:25;;;;;;;4.10;2.35;;;;;;;21.05;73.81;65196.81;5051763;28;20315;-54
2023/08/17 05:16:50;;;;;;;6.95;2.65;;;;;;;21.10;73.72;65204.34;5051427;28;20205;-54
2023/08/17 05:19:16;;;;;;;4.93;2.30;;;;;;;21.17;76.25;65209.53;5051724;28;20247;-54
2023/08/17 05:21:41;;;;;;;7.15;2.72;;;;;;;21.40;79.13;65235.53;5051733;28;20644;-54
2023/08/17 05:24:07;;;;;;;3.80;2.53;;;;;;;21.75;80.72;65274.22;5051520;28;20347;-58
2023/08/17 05:26:32;;;;;;;3.30;2.92;;;;;;;21.92;77.40;65294.53;5051512;28;20217;-55
2023/08/17 05:28:58;;;;;;;3.28;2.40;;;;;;;21.99;76.39;65299.72;5033582;28;20207;-53
2023/08/17 05:31:24;;;;;;;6.40;2.72;;;;;;;22.15;76.03;65317.41;5051372;28;20296;-53
2023/08/17 05:33:49;;;;;;;3.22;2.28;;;;;;;22.30;75.61;65337.13;5051355;28;20254;-55
2023/08/17 05:36:15;;;;;;;6.05;2.38;;;;;;;22.36;75.18;65341.22;5051371;28;20303;-55
2023/08/17 05:38:41;;;;;;;4.55;2.45;;;;;;;22.33;73.72;65337.34;5051451;28;20208;-54
2023/08/17 05:41:07;;;;;;;5.80;3.00;;;;;;;22.47;73.24;65355.97;5049204;28;20271;-54
2023/08/17 05:43:33;;;;;;;6.35;3.15;;;;;;;22.74;74.26;65382.19;5033065;28;20210;-54
2023/08/17 05:46:02;;;;;;;7.53;3.30;;;;;;;22.91;72.72;65398.44;5051233;28;20193;-54
2023/08/17 05:48:28;;;;;;;9.05;3.03;;;;;;;23.25;71.93;65441.81;5051235;28;20205;-55
2023/08/17 05:50:56;;;;;;;8.65;3.53;;;;;;;23.33;72.39;65448.13;5051104;28;20201;-54
2023/08/17 05:53:21;;;;;;;8.15;3.63;;;;;;;23.49;73.18;65464.75;5051245;28;20208;-54
2023/08/17 05:55:47;;;;;;;8.88;4.07;;;;;;;23.45;73.71;65462.88;5050949;28;20209;-54
2023/08/17 05:58:12;;;;;;;9.90;4.07;;;;;;;23.71;72.63;65489.13;5050388;28;20572;-54
2023/08/17 06:00:38;;;;;;;15.75;4.78;;;;;;;23.58;72.95;65475.28;5051068;28;20202;-55
2023/08/17 06:03:05;;;;;;;9.45;4.85;;;;;;;23.59;73.05;65475.84;5051552;28;20291;-54
2023/08/17 06:05:30;;;;;;;10.32;4.40;;;;;;;23.43;73.71;65458.09;5051185;28;20208;-55
2023/08/17 06:07:57;;;;;;;12.68;4.30;;;;;;;23.61;71.98;65478.03;5032947;28;20213;-55
2023/08/17 06:10:27;;;;;;;9.68;4.70;;;;;;;23.62;72.12;65479.16;5032791;28;20193;-52
2023/08/17 06:12:56;;;;;;;10.77;4.15;;;;;;;23.66;71.48;65484.13;5050922;28;20324;-54
2023/08/17 06:15:23;;;;;;;5.95;3.72;;;;;;;23.68;71.18;65486.34;5051219;28;20225;-54
2023/08/17 06:17:52;;;;;;;9.15;3.60;;;;;;;23.68;71.49;65485.78;5050836;28;20225;-54
2023/08/17 06:20:18;;;;;;;5.20;3.28;;;;;;;23.83;69.49;65502.44;5051015;28;20194;-55
2023/08/17 06:22:47;;;;;;;7.38;3.47;;;;;;;23.94;68.66;65514.59;5051076;28;20213;-54
2023/08/17 06:25:12;;;;;;;4.03;3.15;;;;;;;24.18;67.23;65541.25;5050943;28;20208;-58
2023/08/17 06:27:41;;;;;;;8.05;3.00;;;;;;;24.32;66.55;65556.75;5050798;28;20225;-57
2023/08/17 06:30:07;;;;;;;9.95;3.50;;;;;;;24.36;66.43;65558.09;5050713;28;20198;-55
2023/08/17 06:32:33;;;;;;;10.18;3.50;;;;;;;24.37;66.88;65561.75;5033140;28;20714;-54
2023/08/17 06:34:58;;;;;;;3.88;3.47;;;;;;;24.19;68.54;65542.34;5051310;28;20185;-54
2023/08/17 06:37:24;;;;;;;7.80;3.55;;;;;;;24.02;71.96;65521.47;5032800;28;20649;-57
2023/08/17 06:39:50;;;;;;;4.90;4.25;;;;;;;24.08;73.15;65530.16;5050399;28;20174;-55
2023/08/17 06:42:16;;;;;;;5.57;4.70;;;;;;;23.98;75.52;65519.59;5032834;28;20221;-55
2023/08/17 06:44:41;;;;;;;11.05;5.20;;;;;;;24.06;77.46;65525.91;5050841;28;20569;-54
2023/08/17 06:47:07;;;;;;;8.13;4.55;;;;;;;24.13;78.58;65536.25;5050454;28;20277;-55
2023/08/17 06:49:33;;;;;;;8.82;5.03;;;;;;;24.19;78.69;65542.34;5050527;28;20193;-54
2023/08/17 06:51:59;;;;;;;8.13;5.03;;;;;;;24.34;77.95;65556.41;5032538;28;20214;-55
2023/08/17 06:54:24;;;;;;;9.93;5.18;;;;;;;24.40;77.92;65565.09;5050753;28;20212;-56
2023/08/17 06:56:51;;;;;;;9.98;5.07;;;;;;;24.40;78.70;65565.63;5050356;28;20597;-55
2023/08/17 06:59:16;;;;;;;11.27;7.30;;;;;;;24.52;77.30;65578.97;5050332;28;20204;-58
2023/08/17 07:01:42;;;;;;;13.13;5.75;;;;;;;24.65;77.07;65590.22;5050166;28;20707;-55
2023/08/17 07:04:07;;;;;;;6.97;5.22;;;;;;;24.66;76.94;65594.50;5050976;28;20261;-54
2023/08/17 07:06:33;;;;;;;7.95;5.05;;;;;;;24.68;77.43;65594.13;5050346;28;20217;-58
2023/08/17 07:08:59;;;;;;;7.35;5.10;;;;;;;24.74;73.94;65600.81;5050375;28;20194;-56
2023/08/17 07:11:24;;;;;;;7.28;4.50;;;;;;;24.79;72.88;65605.78;5050116;28;20236;-54
2023/08/17 07:13:51;;;;;;;5.95;4.97;;;;;;;24.76;76.17;65603.03;5032510;28;20197;-56
2023/08/17 07:16:17;;;;;;;8.15;4.90;;;;;;;24.91;74.88;65621.69;5050410;28;20268;-56
2023/08/17 07:18:43;;;;;;;9.45;4.78;;;;;;;24.97;73.49;65628.88;5050044;28;20355;-54
2023/08/17 07:21:08;;;;;;;7.43;4.40;;;;;;;25.16;72.76;65652.00;5050036;28;20220;-57
2023/08/17 07:23:35;;;;;;;5.95;4.45;;;;;;;25.28;68.28;65660.16;5050212;28;20205;-55
2023/08/17 07:26:02;;;;;;;6.38;4.75;;;;;;;25.35;68.13;65670.50;5049903;28;20220;-54
2023/08/17 07:28:28;;;;;;;10.95;5.13;;;;;;;25.60;67.67;65695.13;5032275;28;20220;-59
2023/08/17 07:30:54;;;;;;;12.43;5.18;;;;;;;25.66;69.84;65704.38;5049923;28;20189;-55
2023/08/17 07:33:20;;;;;;;9.75;5.03;;;;;;;25.72;66.50;65713.63;5050432;28;20578;-54
2023/08/17 07:35:45;;;;;;;9.82;4.85;;;;;;;25.86;68.69;65726.59;5049751;28;20204;-55
2023/08/17 07:38:11;;;;;;;7.40;3.83;;;;;;;26.10;61.80;65752.72;5031924;28;20201;-55
2023/08/17 07:40:38;;;;;;;3.80;3.38;;;;;;;26.07;60.96;65749.38;5050030;28;20201;-54
2023/08/17 07:43:04;;;;;;;10.43;4.28;;;;;;;26.15;60.84;65758.81;5031678;28;20291;-56
2023/08/17 07:45:30;;;;;;;11.50;5.53;;;;;;;26.43;59.71;65789.38;5049743;28;20262;-54
2023/08/17 07:47:55;;;;;;;6.72;4.25;;;;;;;26.61;53.98;65809.91;5031795;28;20296;-53
2023/08/17 07:50:21;;;;;;;5.30;3.30;;;;;;;26.49;56.08;65796.59;5049737;28;20702;-54
2023/08/17 07:52:47;;;;;;;7.60;3.80;;;;;;;26.57;54.76;65802.88;5049739;28;20274;-56
2023/08/17 07:55:12;;;;;;;7.85;3.80;;;;;;;26.70;56.57;65818.81;5049884;28;20201;-58
2023/08/17 07:57:37;;;;;;;5.80;3.65;;;;;;;26.80;59.04;65827.34;5049685;28;20225;-58
2023/08/17 08:00:04;;;;;;;3.88;3.33;;;;;;;26.93;53.81;65844.94;5031534;28;20738;-57
2023/08/17 08:02:30;;;;;;;3.67;3.03;;;;;;;27.07;54.17;65857.91;5032102;28;20279;-61
2023/08/17 08:04:56;;;;;;;6.53;3.60;;;;;;;27.18;54.05;65867.56;5049645;28;20211;-54
2023/08/17 08:07:22;;;;;;;6.32;3.15;;;;;;;27.27;52.37;65879.59;5049775;28;20212;-55
2023/08/17 08:09:47;;;;;;;12.23;3.15;;;;;;;27.40;50.74;65892.03;5049576;28;20182;-56
2023/08/17 08:12:13;;;;;;;5.72;3.28;;;;;;;27.36;52.01;65892.78;5031946;28;20383;-54
2023/08/17 08:14:39;;;;;;;5.82;3.03;;;;;;;27.34;55.07;65890.56;5049747;28;20684;-59
2023/08/17 08:17:05;;;;;;;5.50;3.72;;;;;;;27.50;52.69;65907.22;5031619;28;20226;-53
2023/08/17 08:19:32;;;;;;;4.93;3.20;;;;;;;27.51;52.71;65906.31;5049824;28;20275;-55
2023/08/17 08:21:58;;;;;;;6.28;3.65;;;;;;;27.63;53.96;65919.66;5052763;28;20305;-54
2023/08/17 08:24:23;;;;;;;6.05;3.03;;;;;;;27.82;52.42;65940.22;5053080;28;20680;-58
2023/08/17 08:26:57;;;;;;;5.00;3.08;;;;;;;27.84;51.18;65940.41;5053011;28;20611;-54
2023/08/17 08:29:22;;;;;;;4.43;3.22;;;;;;;27.72;53.02;65929.09;5052823;28;20649;-54
2023/08/17 08:31:47;;;;;;;5.20;3.35;;;;;;;27.86;52.02;65942.06;5034949;28;20352;-55
2023/08/17 08:34:13;;;;;;;5.80;3.72;;;;;;;27.65;52.95;65927.06;5052792;28;20201;-55
2023/08/17 08:36:39;;;;;;;5.65;4.35;;;;;;;27.82;54.54;65940.22;5052507;28;20222;-54
2023/08/17 08:39:04;;;;;;;3.58;2.92;;;;;;;28.02;52.69;65962.47;5034809;28;20181;-55
2023/08/17 08:41:32;;;;;;;4.07;3.20;;;;;;;28.22;51.63;65987.31;5052807;28;20267;-54
2023/08/17 08:43:58;;;;;;;5.90;3.70;;;;;;;28.06;52.57;65967.50;5052700;28;20212;-55
2023/08/17 08:46:29;;;;;;;4.57;3.85;;;;;;;28.23;52.97;65989.00;5052872;28;20213;-54
2023/08/17 08:48:56;;;;;;;3.35;2.75;;;;;;;28.42;51.79;66009.59;5052557;28;20206;-55
2023/08/17 08:51:28;;;;;;;5.90;2.90;;;;;;;28.59;51.66;66025.94;5052614;28;20248;-53
2023/08/17 08:54:02;;;;;;;7.35;4.18;;;;;;;28.63;52.29;66029.81;5052431;28;20244;-53
2023/08/17 08:56:33;;;;;;;5.28;3.40;;;;;;;28.81;51.38;66049.84;5034123;28;20239;-55
2023/08/17 08:59:02;;;;;;;5.70;3.50;;;;;;;28.98;50.94;66068.78;5035130;28;20276;-52
2023/08/17 09:01:31;;;;;;;4.00;3.45;;;;;;;29.24;50.06;66099.81;5052386;28;20232;-56
2023/08/17 09:03:58;;;;;;;4.90;3.05;;;;;;;29.28;47.86;66099.63;5052541;28;20202;-53
2023/08/17 09:06:27;;;;;;;5.18;3.10;;;;;;;28.92;48.88;66062.13;5052223;28;20307;-54
2023/08/17 09:08:52;;;;;;;5.35;3.78;;;;;;;29.16;48.24;66088.84;5052067;28;20254;-53
2023/08/17 09:11:18;;;;;;;6.20;3.50;;;;;;;29.50;49.63;66124.13;5034190;28;20205;-53
2023/08/17 09:13:43;;;;;;;8.23;3.15;;;;;;;29.58;46.35;66135.63;5052142;28;20247;-53
2023/08/17 09:16:10;;;;;;;3.15;2.85;;;;;;;29.42;46.39;66120.41;5034317;28;20221;-53
2023/08/17 09:18:36;;;;;;;4.65;3.33;;;;;;;29.75;45.54;66154.59;5051594;28;20288;-53
2023/08/17 09:21:02;;;;;;;5.40;3.20;;;;;;;30.12;47.20;66194.72;5051930;28;20287;-53
2023/08/17 09:23:27;;;;;;;15.88;11.80;;;;;;;30.29;45.64;66211.06;5051785;28;20213;-53
2023/08/17 09:25:57;;;;;;;8.93;6.55;;;;;;;30.53;44.94;66240.41;5051545;28;20197;-53
2023/08/17 09:28:24;;;;;;;5.60;3.58;;;;;;;30.61;44.91;66247.28;5051883;28;20594;-54
2023/08/17 09:30:54;;;;;;;5.13;3.03;;;;;;;30.52;42.75;66237.25;5049954;28;20173;-55
2023/08/17 09:33:21;;;;;;;3.08;2.83;;;;;;;30.72;42.86;66261.03;5051024;28;20190;-53
2023/08/17 09:35:49;;;;;;;4.40;2.80;;;;;;;30.71;44.06;66259.91;5050799;28;20202;-54
2023/08/17 09:38:14;;;;;;;9.63;3.25;;;;;;;31.20;43.34;66317.75;5051217;28;20729;-52
2023/08/17 09:40:41;;;;;;;3.35;2.67;;;;;;;31.45;42.43;66343.06;5034034;28;20189;-54
2023/08/17 09:43:08;;;;;;;3.72;2.92;;;;;;;31.40;40.76;66337.47;5051659;28;20221;-53
2023/08/17 09:45:37;;;;;;;4.00;2.88;;;;;;;31.82;40.96;66383.22;5051815;28;20198;-52
2023/08/17 09:48:03;;;;;;;4.00;2.60;;;;;;;31.99;38.70;66399.59;5052033;28;20205;-52
2023/08/17 09:50:29;;;;;;;6.65;2.67;;;;;;;32.12;39.17;66414.09;5052181;28;20277;-51
2023/08/17 09:52:54;;;;;;;5.53;2.50;;;;;;;32.31;38.66;66440.56;5051518;28;20360;-53
2023/08/17 09:55:23;;;;;;;4.28;2.50;;;;;;;32.18;39.49;66423.41;5051362;28;20194;-53
2023/08/17 09:57:52;;;;;;;4.22;2.47;;;;;;;32.02;38.20;66406.13;5051725;28;20222;-53
2023/08/17 10:00:21;;;;;;;4.28;2.25;;;;;;;32.27;37.00;66430.88;5051673;28;20679;-53
2023/08/17 10:02:53;;;;;;;7.07;2.75;;;;;;;32.68;37.18;66481.91;5051520;28;20209;-53
2023/08/17 10:05:22;;;;;;;2.28;2.03;;;;;;;32.45;36.47;66453.59;5051149;28;20296;-53
2023/08/17 10:07:54;;;;;;;5.68;2.20;;;;;;;32.73;38.13;66484.84;5051503;28;20213;-56
2023/08/17 10:10:25;;;;;;;4.10;2.20;;;;;;;32.88;36.45;66499.00;5051441;28;20206;-53
2023/08/17 10:13:11;;;;;;;7.32;2.10;;;;;;;32.92;35.46;66503.47;5033297;28;20205;-53
2023/08/17 10:15:40;;;;;;;2.85;2.65;;;;;;;32.93;35.81;66504.56;5050961;28;20201;-53
2023/08/17 10:18:14;;;;;;;5.80;2.80;;;;;;;33.27;36.64;66541.47;5051170;28;20225;-53
2023/08/17 10:20:45;;;;;;;2.55;2.22;;;;;;;33.50;35.42;66567.19;5050961;28;20701;-52
2023/08/17 10:23:15;;;;;;;3.05;2.30;;;;;;;33.11;35.82;66523.59;5050965;28;20214;-54
2023/08/17 10:25:42;;;;;;;3.05;2.42;;;;;;;33.70;35.38;66592.72;5050605;28;20197;-53
2023/08/17 10:28:09;;;;;;;3.63;3.33;;;;;;;34.05;35.44;66628.69;5050592;28;20202;-53
2023/08/17 10:30:36;;;;;;;3.33;2.60;;;;;;;33.84;33.37;66607.78;5049893;28;20663;-53
2023/08/17 10:33:07;;;;;;;2.20;2.00;;;;;;;34.01;33.70;66623.63;5050434;28;20696;-53
2023/08/17 10:35:35;;;;;;;5.35;2.40;;;;;;;33.92;33.37;66611.50;5032409;28;20209;-54
2023/08/17 10:38:04;;;;;;;3.67;2.70;;;;;;;34.08;33.67;66631.47;5032681;28;20213;-53
2023/08/17 10:40:41;;;;;;;3.88;2.35;;;;;;;34.25;33.78;66651.03;5032585;28;20242;-53
2023/08/17 10:43:06;;;;;;;7.97;2.88;;;;;;;34.34;35.02;66660.53;5049982;28;20224;-53
2023/08/17 10:45:35;;;;;;;3.60;2.28;;;;;;;34.46;33.68;66671.88;5050562;28;20193;-52
2023/08/17 10:48:01;;;;;;;3.15;2.60;;;;;;;34.45;32.55;66672.84;5050327;28;20256;-54
2023/08/17 10:50:27;;;;;;;3.13;1.90;;;;;;;34.24;31.94;66649.91;5050754;28;20221;-53
2023/08/17 10:52:53;;;;;;;4.82;2.00;;;;;;;34.62;32.14;66694.50;5050449;28;20217;-53
2023/08/17 10:55:36;;;;;;;3.92;2.08;;;;;;;34.81;32.08;66715.19;5050224;28;20193;-52
2023/08/17 10:58:02;;;;;;;4.72;2.42;;;;;;;34.97;32.68;66728.41;5050597;28;20310;-53
2023/08/17 11:00:36;;;;;;;2.72;2.33;;;;;;;34.78;31.04;66711.81;5050809;28;20628;-53
2023/08/17 11:03:11;;;;;;;3.85;2.25;;;;;;;34.56;31.29;66685.72;5050575;28;20212;-53
2023/08/17 11:05:55;;;;;;;2.40;2.22;;;;;;;34.34;31.49;66657.94;5050229;28;20751;-53
2023/08/17 11:08:31;;;;;;;3.20;2.33;;;;;;;34.76;30.47;66706.97;5050670;28;20230;-53
2023/08/17 11:11:07;;;;;;;5.50;2.70;;;;;;;35.03;32.59;66737.19;5050223;28;20197;-53
2023/08/17 11:13:35;;;;;;;3.20;2.70;;;;;;;34.90;32.99;66722.63;5050152;28;20201;-53
2023/08/17 11:16:01;;;;;;;5.97;2.80;;;;;;;35.08;32.16;66742.78;5049976;28;20232;-53
2023/08/17 11:18:27;;;;;;;3.83;2.45;;;;;;;34.34;32.18;66663.16;5016181;28;20208;-52
2023/08/17 11:20:54;;;;;;;3.95;2.40;;;;;;;35.07;32.01;66744.31;5049657;28;20205;-52
2023/08/17 11:23:20;;;;;;;2.47;2.28;;;;;;;35.21;31.50;66755.25;5049884;28;20181;-54
2023/08/17 11:25:46;;;;;;;3.80;2.38;;;;;;;34.43;32.95;66671.16;5049962;28;20297;-52
2023/08/17 11:28:14;;;;;;;3.75;2.53;;;;;;;34.23;34.24;66648.22;5050195;28;20233;-53
2023/08/17 11:30:40;;;;;;;4.45;2.40;;;;;;;34.72;32.48;66702.50;5050060;28;20205;-53